Terminal Aerodrome Forecast
Issued by NWS

Home | Current Version | Previous Version | Text Only | Print | Product List | Glossary On
Versions: 1 2 3 4 5 6 7 8 9 10 11 12 13 14 15 16 17 18 19 20 21 22
979
FTUS41 KGYX 242320
TAFLEB
TAF
KLEB 242320Z 2500/2524 00000KT P6SM FEW100
     FM251200 14006KT 3SM -SN SCT025 OVC050
     FM251400 14008KT 1SM -SN OVC015
      TEMPO 2515/2519 1/2SM SN BKN007
     FM252300 35006KT P6SM BKN015=

USA.gov is the U.S. government's official web portal to all federal, state and local government web resources and services.